createdAt,value
2022-10-25T00:01:33.975Z,16.38
2022-10-25T00:04:01.697Z,15.69
2022-10-25T00:06:29.145Z,16.18
2022-10-25T00:08:56.839Z,15.98
2022-10-25T00:11:25.458Z,15.57
2022-10-25T00:13:54.893Z,15.85
2022-10-25T00:16:23.021Z,16.14
2022-10-25T00:18:50.745Z,15.84
2022-10-25T00:21:18.239Z,15.80
2022-10-25T00:23:45.728Z,15.88
2022-10-25T00:26:13.221Z,16.05
2022-10-25T00:28:41.140Z,16.27
2022-10-25T00:31:10.781Z,16.43
2022-10-25T00:33:38.537Z,16.15
2022-10-25T00:36:06.589Z,16.44
2022-10-25T00:38:34.063Z,16.51
2022-10-25T00:41:01.797Z,16.73
2022-10-25T00:43:33.084Z,16.00
2022-10-25T00:48:34.649Z,16.40
2022-10-25T00:51:02.153Z,16.65
2022-10-25T00:53:30.112Z,16.22
2022-10-25T00:55:59.693Z,15.37
2022-10-25T00:58:27.548Z,15.98
2022-10-25T01:00:56.568Z,16.73
2022-10-25T01:03:24.089Z,16.55
2022-10-25T01:05:53.016Z,16.34
2022-10-25T01:08:20.488Z,16.49
2022-10-25T01:10:47.991Z,16.40
2022-10-25T01:13:15.468Z,16.29
2022-10-25T01:15:46.274Z,16.51
2022-10-25T01:18:14.601Z,16.54
2022-10-25T01:20:48.449Z,16.16
2022-10-25T01:23:29.092Z,16.35
2022-10-25T01:26:01.300Z,16.71
2022-10-25T01:28:31.785Z,16.96
2022-10-25T01:31:14.092Z,17.02
2022-10-25T01:33:43.965Z,16.74
2022-10-25T01:38:42.607Z,16.72
2022-10-25T01:41:12.188Z,16.22
2022-10-25T01:43:41.379Z,17.04
2022-10-25T01:46:10.635Z,16.93
2022-10-25T01:48:38.690Z,16.72
2022-10-25T01:51:10.019Z,16.53
2022-10-25T01:53:44.553Z,16.53
2022-10-25T01:56:12.018Z,16.84
2022-10-25T01:58:39.759Z,17.23
2022-10-25T02:01:09.500Z,17.00
2022-10-25T02:03:37.629Z,16.57
2022-10-25T02:06:10.441Z,16.52
2022-10-25T02:08:38.577Z,16.77
2022-10-25T02:11:07.500Z,16.98
2022-10-25T02:13:38.765Z,17.05
2022-10-25T02:16:06.885Z,17.31
2022-10-25T02:18:35.076Z,17.15
2022-10-25T02:21:02.592Z,17.10
2022-10-25T02:23:31.462Z,17.00
2022-10-25T02:25:58.908Z,17.11
2022-10-25T02:28:26.706Z,16.55
2022-10-25T02:30:54.179Z,17.20
2022-10-25T02:33:21.604Z,16.73
2022-10-25T02:36:03.950Z,16.96
2022-10-25T02:38:32.774Z,17.20
2022-10-25T02:41:00.206Z,16.57
2022-10-25T02:46:00.461Z,17.36
2022-10-25T02:48:27.924Z,16.90
2022-10-25T02:50:55.369Z,16.85
2022-10-25T02:53:22.810Z,16.92
2022-10-25T02:55:51.632Z,17.19
2022-10-25T02:58:19.085Z,16.93
2022-10-25T03:00:46.682Z,16.96
2022-10-25T03:03:14.169Z,17.39
2022-10-25T03:05:41.663Z,17.36
2022-10-25T03:08:09.146Z,16.94
2022-10-25T03:10:37.759Z,16.63
2022-10-25T03:13:06.578Z,16.74
2022-10-25T03:15:34.045Z,17.09
2022-10-25T03:18:01.477Z,17.28
2022-10-25T03:20:28.980Z,17.03
2022-10-25T03:22:56.492Z,16.14
2022-10-25T03:25:23.941Z,16.72
2022-10-25T03:27:51.396Z,16.92
2022-10-25T03:30:20.413Z,16.98
2022-10-25T03:32:47.882Z,16.55
2022-10-25T03:35:15.401Z,16.98
2022-10-25T03:37:42.897Z,17.21
2022-10-25T03:40:11.058Z,17.00
2022-10-25T03:42:38.522Z,17.06
2022-10-25T03:45:06.538Z,16.77
2022-10-25T03:47:35.445Z,16.98
2022-10-25T03:50:02.893Z,16.85
2022-10-25T03:52:30.355Z,16.91
2022-10-25T03:54:57.821Z,16.84
2022-10-25T03:57:25.303Z,16.52
2022-10-25T03:59:52.741Z,16.37
2022-10-25T04:02:20.225Z,16.65
2022-10-25T04:04:49.044Z,16.75
2022-10-25T04:07:16.564Z,16.51
2022-10-25T04:09:44.004Z,16.82
2022-10-25T04:12:11.489Z,17.13
2022-10-25T04:14:38.993Z,16.83
2022-10-25T04:17:06.457Z,17.23
2022-10-25T04:19:33.964Z,16.95
2022-10-25T04:22:02.950Z,16.97
2022-10-25T04:24:30.561Z,16.75
2022-10-25T04:26:58.013Z,17.13
2022-10-25T04:29:25.930Z,16.93
2022-10-25T04:31:53.361Z,16.23
2022-10-25T04:34:20.819Z,16.92
2022-10-25T04:36:48.272Z,16.73
2022-10-25T04:39:17.073Z,16.85
2022-10-25T04:41:44.561Z,16.92
2022-10-25T04:44:12.003Z,16.51
2022-10-25T04:46:39.498Z,16.72
2022-10-25T04:49:06.938Z,17.22
2022-10-25T04:51:34.641Z,16.54
2022-10-25T04:54:02.100Z,16.86
2022-10-25T04:56:30.899Z,16.64
2022-10-25T04:58:59.101Z,16.44
2022-10-25T05:01:26.724Z,16.54
2022-10-25T05:03:54.249Z,16.52
2022-10-25T05:06:22.423Z,16.55
2022-10-25T05:08:50.648Z,16.82
2022-10-25T05:11:18.472Z,16.30
2022-10-25T05:13:47.850Z,16.17
2022-10-25T05:16:17.281Z,16.52
2022-10-25T05:18:46.263Z,16.52
2022-10-25T05:21:13.780Z,17.01
2022-10-25T05:23:41.622Z,16.82
2022-10-25T05:26:09.772Z,16.06
2022-10-25T05:28:37.515Z,16.72
2022-10-25T05:31:06.712Z,16.62
2022-10-25T05:33:34.272Z,16.24
2022-10-25T05:36:01.739Z,16.43
2022-10-25T05:38:30.388Z,16.33
2022-10-25T05:43:27.863Z,16.87
2022-10-25T05:46:03.338Z,16.86
2022-10-25T05:48:32.221Z,16.76
2022-10-25T05:51:21.260Z,16.52
2022-10-25T05:53:56.717Z,16.78
2022-10-25T05:56:24.613Z,16.36
2022-10-25T05:58:52.311Z,16.51
2022-10-25T06:01:20.446Z,16.94
2022-10-25T06:03:49.774Z,16.28
2022-10-25T06:06:17.276Z,16.82
2022-10-25T06:08:44.727Z,16.38
2022-10-25T06:11:12.807Z,16.15
2022-10-25T06:13:40.357Z,16.22
2022-10-25T06:16:08.661Z,16.49
2022-10-25T06:18:38.365Z,16.50
2022-10-25T06:21:07.923Z,16.11
2022-10-25T06:23:36.378Z,16.65
2022-10-25T06:26:04.744Z,16.68
2022-10-25T06:28:32.326Z,15.47
2022-10-25T06:31:02.988Z,16.09
2022-10-25T06:33:30.460Z,16.22
2022-10-25T06:35:57.976Z,16.13
2022-10-25T06:38:27.017Z,15.97
2022-10-25T06:40:59.041Z,16.21
2022-10-25T06:43:26.566Z,16.70
2022-10-25T06:45:54.180Z,16.73
2022-10-25T06:48:21.767Z,16.69
2022-10-25T06:50:52.120Z,16.08
2022-10-25T06:53:19.757Z,16.63
2022-10-25T06:55:49.513Z,16.78
2022-10-25T06:58:16.981Z,16.23
2022-10-25T07:00:46.119Z,16.37
2022-10-25T07:03:17.192Z,16.40
2022-10-25T07:05:44.831Z,16.11
2022-10-25T07:08:12.454Z,16.60
2022-10-25T07:10:40.099Z,16.23
2022-10-25T07:13:09.170Z,16.21
2022-10-25T07:15:38.708Z,16.27
2022-10-25T07:18:09.110Z,16.51
2022-10-25T07:20:36.755Z,16.65
2022-10-25T07:23:06.614Z,16.39
2022-10-25T07:25:36.282Z,16.64
2022-10-25T07:28:03.937Z,17.16
2022-10-25T07:30:32.908Z,17.18
2022-10-25T07:33:00.624Z,17.31
2022-10-25T07:35:28.302Z,17.72
2022-10-25T07:37:55.909Z,17.63
2022-10-25T07:40:23.615Z,16.85
2022-10-25T07:42:51.280Z,16.63
2022-10-25T07:45:22.305Z,17.02
2022-10-25T07:47:53.567Z,16.93
2022-10-25T07:50:21.177Z,16.93
2022-10-25T07:52:48.842Z,16.83
2022-10-25T07:55:16.594Z,16.78
2022-10-25T07:57:44.369Z,17.56
2022-10-25T08:00:12.953Z,17.41
2022-10-25T08:02:41.105Z,16.33
2022-10-25T08:05:10.842Z,17.62
2022-10-25T08:07:38.449Z,17.17
2022-10-25T08:10:06.809Z,17.15
2022-10-25T08:12:34.450Z,17.93
2022-10-25T08:15:02.050Z,18.47
2022-10-25T08:17:29.722Z,18.19
2022-10-25T08:19:57.359Z,18.13
2022-10-25T08:22:26.357Z,18.00
2022-10-25T08:24:53.983Z,17.74
2022-10-25T08:27:22.046Z,17.36
2022-10-25T08:29:49.697Z,17.24
2022-10-25T08:32:17.382Z,17.27
2022-10-25T08:34:45.026Z,17.31
2022-10-25T08:37:13.121Z,17.43
2022-10-25T08:39:42.115Z,17.88
2022-10-25T08:42:16.950Z,17.66
2022-10-25T08:44:47.100Z,17.42
2022-10-25T08:47:18.713Z,18.13
2022-10-25T08:49:52.931Z,18.09
2022-10-25T08:52:26.026Z,18.28
2022-10-25T08:54:59.276Z,18.41
2022-10-25T08:57:32.352Z,17.69
2022-10-25T09:00:07.100Z,16.84
2022-10-25T09:02:39.674Z,17.79
2022-10-25T09:05:14.734Z,17.64
2022-10-25T09:07:56.869Z,17.77
2022-10-25T09:10:34.030Z,17.59
2022-10-25T09:13:09.872Z,18.30
2022-10-25T09:15:46.770Z,18.75
2022-10-25T09:18:16.749Z,18.19
2022-10-25T09:20:49.937Z,19.26
2022-10-25T09:23:25.384Z,18.64
2022-10-25T09:26:04.957Z,18.24
2022-10-25T09:28:46.198Z,18.57
2022-10-25T09:31:17.484Z,18.61
2022-10-25T09:33:47.577Z,17.93
2022-10-25T09:36:15.976Z,18.24
2022-10-25T09:38:46.337Z,17.93
2022-10-25T09:41:19.153Z,17.59
2022-10-25T09:43:50.502Z,17.62
2022-10-25T09:46:20.693Z,17.49
2022-10-25T09:48:51.849Z,17.40
2022-10-25T09:51:22.758Z,17.92
2022-10-25T09:53:50.702Z,17.24
2022-10-25T09:56:19.717Z,17.93
2022-10-25T09:58:47.936Z,17.97
2022-10-25T10:01:18.291Z,18.06
2022-10-25T10:03:48.922Z,17.69
2022-10-25T10:06:23.027Z,18.03
2022-10-25T10:08:52.935Z,18.64
2022-10-25T10:11:22.122Z,17.55
2022-10-25T10:13:51.939Z,17.82
2022-10-25T10:16:23.134Z,18.27
2022-10-25T10:18:50.874Z,18.34
2022-10-25T10:21:20.190Z,18.61
2022-10-25T10:23:53.512Z,18.26
2022-10-25T10:26:29.631Z,17.97
2022-10-25T10:29:08.691Z,18.01
2022-10-25T10:31:38.248Z,17.28
2022-10-25T10:34:06.051Z,17.67
2022-10-25T10:36:34.228Z,18.40
2022-10-25T10:39:20.868Z,18.87
2022-10-25T10:42:03.100Z,18.85
2022-10-25T10:44:34.450Z,18.93
2022-10-25T10:47:03.617Z,18.64
2022-10-25T10:49:36.354Z,18.95
2022-10-25T10:52:04.466Z,18.89
2022-10-25T10:54:34.232Z,18.56
2022-10-25T10:57:04.345Z,18.75
2022-10-25T10:59:36.608Z,18.79
2022-10-25T11:02:24.906Z,18.99
2022-10-25T11:04:54.625Z,19.56
2022-10-25T11:07:28.909Z,20.00
2022-10-25T11:10:18.409Z,18.71
2022-10-25T11:13:05.272Z,18.95
2022-10-25T11:15:38.621Z,18.69
2022-10-25T11:18:07.277Z,19.40
2022-10-25T11:20:47.320Z,19.51
2022-10-25T11:23:18.424Z,18.78
2022-10-25T11:25:51.183Z,20.00
2022-10-25T11:28:38.695Z,19.12
2022-10-25T11:31:07.989Z,19.43
2022-10-25T11:33:38.594Z,19.04
2022-10-25T11:36:09.877Z,19.84
2022-10-25T11:38:41.412Z,19.02
2022-10-25T11:41:12.836Z,20.18
2022-10-25T11:43:49.316Z,19.14
2022-10-25T11:46:17.770Z,19.44
2022-10-25T11:48:52.225Z,18.77
2022-10-25T11:51:22.344Z,20.58
2022-10-25T11:53:58.452Z,20.70
2022-10-25T11:56:27.408Z,19.36
2022-10-25T11:58:57.979Z,20.45
2022-10-25T12:01:30.148Z,20.23
2022-10-25T12:04:01.450Z,18.96
2022-10-25T12:06:30.657Z,19.02
2022-10-25T12:09:03.202Z,18.74
2022-10-25T12:11:31.322Z,19.78
2022-10-25T12:14:00.703Z,19.82
2022-10-25T12:16:28.157Z,20.56
2022-10-25T12:18:58.260Z,19.97
2022-10-25T12:21:27.856Z,19.73
2022-10-25T12:23:55.753Z,19.84
2022-10-25T12:26:25.221Z,20.33
2022-10-25T12:28:52.750Z,20.38
2022-10-25T12:31:21.843Z,20.61
2022-10-25T12:33:50.409Z,19.66
2022-10-25T12:36:20.440Z,20.17
2022-10-25T12:38:47.905Z,19.87
2022-10-25T12:41:16.714Z,18.67
2022-10-25T12:43:45.144Z,19.26
2022-10-25T12:46:17.272Z,19.36
2022-10-25T12:49:00.506Z,19.55
2022-10-25T12:51:39.053Z,19.03
2022-10-25T12:54:24.320Z,20.48
2022-10-25T12:56:55.493Z,20.93
2022-10-25T12:59:33.357Z,20.10
2022-10-25T13:02:04.180Z,20.00
2022-10-25T13:04:42.558Z,19.45
2022-10-25T13:07:10.073Z,19.83
2022-10-25T13:09:37.776Z,19.70
2022-10-25T13:12:05.690Z,20.42
2022-10-25T13:14:33.677Z,20.52
2022-10-25T13:17:19.796Z,20.02
2022-10-25T13:19:54.453Z,20.20
2022-10-25T13:22:35.704Z,20.33
2022-10-25T13:25:17.622Z,20.44
2022-10-25T13:27:59.930Z,20.46
2022-10-25T13:30:28.233Z,20.36
2022-10-25T13:33:14.423Z,19.76
2022-10-25T13:35:59.642Z,20.06
2022-10-25T13:38:27.331Z,19.67
2022-10-25T13:41:13.328Z,19.10
2022-10-25T13:44:01.589Z,19.33
2022-10-25T13:46:32.870Z,18.85
2022-10-25T13:49:01.167Z,18.76
2022-10-25T13:51:29.977Z,18.94
2022-10-25T13:53:57.415Z,19.35
2022-10-25T13:56:33.752Z,20.05
2022-10-25T13:59:01.318Z,19.48
2022-10-25T14:01:56.651Z,19.74
2022-10-25T14:04:33.725Z,19.37
2022-10-25T14:07:16.065Z,19.63
2022-10-25T14:09:44.849Z,19.05
2022-10-25T14:12:15.614Z,19.49
2022-10-25T14:14:45.292Z,19.18
2022-10-25T14:17:14.872Z,19.48
2022-10-25T14:19:42.921Z,19.68
2022-10-25T14:22:14.189Z,18.48
2022-10-25T14:24:41.706Z,19.22
2022-10-25T14:27:25.178Z,19.14
2022-10-25T14:29:52.654Z,19.04
2022-10-25T14:32:20.233Z,18.72
2022-10-25T14:34:49.445Z,19.62
2022-10-25T14:37:16.911Z,19.73
2022-10-25T14:39:52.008Z,19.71
2022-10-25T14:42:20.937Z,19.30
2022-10-25T14:44:48.948Z,19.89
2022-10-25T14:47:27.236Z,19.49
2022-10-25T14:49:54.814Z,19.53
2022-10-25T14:52:22.264Z,19.32
2022-10-25T14:54:53.612Z,19.59
2022-10-25T14:57:24.854Z,19.14
2022-10-25T14:59:52.960Z,19.63
2022-10-25T15:02:21.113Z,19.48
2022-10-25T15:04:49.744Z,19.55
2022-10-25T15:07:19.729Z,19.36
2022-10-25T15:09:49.130Z,19.81
2022-10-25T15:12:17.725Z,19.54
2022-10-25T15:14:48.226Z,19.38
2022-10-25T15:17:20.642Z,19.47
2022-10-25T15:20:14.921Z,19.39
2022-10-25T15:22:43.366Z,19.27
2022-10-25T15:25:17.610Z,19.26
2022-10-25T15:27:45.086Z,19.50
2022-10-25T15:30:27.464Z,18.44
2022-10-25T15:32:56.260Z,19.14
2022-10-25T15:35:24.259Z,19.27
2022-10-25T15:37:51.708Z,18.96
2022-10-25T15:40:19.925Z,18.94
2022-10-25T15:42:47.606Z,19.31
2022-10-25T15:45:15.585Z,19.51
2022-10-25T15:47:43.050Z,19.15
2022-10-25T15:50:14.101Z,18.52
2022-10-25T15:52:41.589Z,18.79
2022-10-25T15:55:11.209Z,18.97
2022-10-25T15:57:38.657Z,18.94
2022-10-25T16:00:06.991Z,18.63
2022-10-25T16:02:34.425Z,18.64
2022-10-25T16:05:01.892Z,18.55
2022-10-25T16:07:31.095Z,18.66
2022-10-25T16:09:58.537Z,18.31
2022-10-25T16:12:26.869Z,18.19
2022-10-25T16:14:54.349Z,18.28
2022-10-25T16:17:21.825Z,18.18
2022-10-25T16:19:49.316Z,18.28
2022-10-25T16:22:16.842Z,18.23
2022-10-25T16:24:45.688Z,18.07
2022-10-25T16:27:13.305Z,18.03
2022-10-25T16:29:40.798Z,17.85
2022-10-25T16:32:08.277Z,17.80
2022-10-25T16:34:35.748Z,17.69
2022-10-25T16:37:05.490Z,17.56
2022-10-25T16:39:35.127Z,17.48
2022-10-25T16:42:03.946Z,17.44
2022-10-25T16:44:31.664Z,17.47
2022-10-25T16:46:59.903Z,17.40
2022-10-25T16:49:27.375Z,17.30
2022-10-25T16:51:54.813Z,17.28
2022-10-25T16:54:24.300Z,17.31
2022-10-25T16:56:51.923Z,17.22
2022-10-25T16:59:20.726Z,17.21
2022-10-25T17:01:48.232Z,17.25
2022-10-25T17:04:15.776Z,17.14
2022-10-25T17:06:43.279Z,17.11
2022-10-25T17:09:10.828Z,17.04
2022-10-25T17:11:38.299Z,17.14
2022-10-25T17:14:05.806Z,17.00
2022-10-25T17:16:34.638Z,17.11
2022-10-25T17:19:03.201Z,17.03
2022-10-25T17:21:31.449Z,16.97
2022-10-25T17:23:58.898Z,17.18
2022-10-25T17:26:26.370Z,17.10
2022-10-25T17:28:54.279Z,17.07
2022-10-25T17:31:21.757Z,17.04
2022-10-25T17:33:50.611Z,17.17
2022-10-25T17:36:18.505Z,17.04
2022-10-25T17:38:46.277Z,17.08
2022-10-25T17:41:13.914Z,16.87
2022-10-25T17:43:41.836Z,16.85
2022-10-25T17:46:10.450Z,16.72
2022-10-25T17:48:37.990Z,16.95
2022-10-25T17:51:07.759Z,16.94
2022-10-25T17:53:35.269Z,16.99
2022-10-25T17:56:10.608Z,17.03
2022-10-25T17:58:38.139Z,16.98
2022-10-25T18:01:06.364Z,16.97
2022-10-25T18:03:34.366Z,16.82
2022-10-25T18:06:02.143Z,16.69
2022-10-25T18:08:31.307Z,16.72
2022-10-25T18:10:59.103Z,16.71
2022-10-25T18:13:27.029Z,16.73
2022-10-25T18:15:54.598Z,16.70
2022-10-25T18:18:22.096Z,16.74
2022-10-25T18:20:51.508Z,16.76
2022-10-25T18:23:19.169Z,16.72
2022-10-25T18:25:52.849Z,16.69
2022-10-25T18:28:20.428Z,16.64
2022-10-25T18:30:47.863Z,16.54
2022-10-25T18:33:16.052Z,16.53
2022-10-25T18:35:43.507Z,16.50
2022-10-25T18:38:13.625Z,16.35
2022-10-25T18:40:43.224Z,16.29
2022-10-25T18:43:12.056Z,16.30
2022-10-25T18:45:39.518Z,16.32
2022-10-25T18:48:07.046Z,16.28
2022-10-25T18:50:39.160Z,16.31
2022-10-25T18:53:09.261Z,16.32
2022-10-25T18:55:36.700Z,16.04
2022-10-25T18:58:04.144Z,16.36
2022-10-25T19:00:32.980Z,16.37
2022-10-25T19:03:00.408Z,16.25
2022-10-25T19:05:28.344Z,16.23
2022-10-25T19:07:55.861Z,16.28
2022-10-25T19:10:23.477Z,16.23
2022-10-25T19:12:51.813Z,16.22
2022-10-25T19:15:19.297Z,16.32
2022-10-25T19:17:51.857Z,16.29
2022-10-25T19:20:19.565Z,16.33
2022-10-25T19:22:47.026Z,16.24
2022-10-25T19:25:14.509Z,16.23
2022-10-25T19:27:42.081Z,16.34
2022-10-25T19:30:09.986Z,16.24
2022-10-25T19:32:37.449Z,16.18
2022-10-25T19:35:06.709Z,16.03
2022-10-25T19:37:34.146Z,16.07
2022-10-25T19:40:02.764Z,16.04
2022-10-25T19:42:30.239Z,16.12
2022-10-25T19:47:30.070Z,16.03
2022-10-25T19:49:57.521Z,15.92
2022-10-25T19:52:26.500Z,15.93
2022-10-25T19:54:54.024Z,15.94
2022-10-25T19:57:21.594Z,15.97
2022-10-25T19:59:49.060Z,15.98
2022-10-25T20:02:16.563Z,15.89
2022-10-25T20:04:44.198Z,15.94
2022-10-25T20:07:11.646Z,15.91
2022-10-25T20:09:41.185Z,15.90
2022-10-25T20:12:08.769Z,15.81
2022-10-25T20:14:37.634Z,15.83
2022-10-25T20:17:05.641Z,15.92
2022-10-25T20:19:33.149Z,15.85
2022-10-25T20:22:00.685Z,15.80
2022-10-25T20:24:28.455Z,15.71
2022-10-25T20:26:57.273Z,15.89
2022-10-25T20:29:24.817Z,15.84
2022-10-25T20:31:53.029Z,15.76
2022-10-25T20:34:20.613Z,15.76
2022-10-25T20:36:48.100Z,15.89
2022-10-25T20:39:15.616Z,15.92
2022-10-25T20:41:43.089Z,15.99
2022-10-25T20:44:12.097Z,15.90
2022-10-25T20:46:39.588Z,15.89
2022-10-25T20:49:07.490Z,15.90
2022-10-25T20:51:36.092Z,15.83
2022-10-25T20:54:09.198Z,15.72
2022-10-25T20:56:39.191Z,15.65
2022-10-25T20:59:06.777Z,15.64
2022-10-25T21:01:35.743Z,15.53
2022-10-25T21:04:03.491Z,15.39
2022-10-25T21:06:30.920Z,15.47
2022-10-25T21:08:58.522Z,15.36
2022-10-25T21:11:28.959Z,15.35
2022-10-25T21:13:56.425Z,15.27
2022-10-25T21:16:23.851Z,15.05
2022-10-25T21:18:52.649Z,15.15
2022-10-25T21:21:20.691Z,15.15
2022-10-25T21:23:48.285Z,14.93
2022-10-25T21:26:15.844Z,14.84
2022-10-25T21:28:43.317Z,14.56
2022-10-25T21:31:11.147Z,14.53
2022-10-25T21:33:38.835Z,14.68
2022-10-25T21:36:08.481Z,14.77
2022-10-25T21:38:35.937Z,14.77
2022-10-25T21:41:07.538Z,14.57
2022-10-25T21:43:35.128Z,14.38
2022-10-25T21:46:04.818Z,14.41
2022-10-25T21:48:32.255Z,14.49
2022-10-25T21:50:59.827Z,14.40
2022-10-25T21:53:28.833Z,14.48
2022-10-25T21:56:06.393Z,14.49
2022-10-25T21:58:33.873Z,14.58
2022-10-25T22:01:01.320Z,14.74
2022-10-25T22:03:29.665Z,14.73
2022-10-25T22:05:57.109Z,14.69
2022-10-25T22:08:24.728Z,14.61
2022-10-25T22:10:57.063Z,14.70
2022-10-25T22:13:24.553Z,14.57
2022-10-25T22:15:55.892Z,14.56
2022-10-25T22:18:23.344Z,14.64
2022-10-25T22:20:53.733Z,14.62
2022-10-25T22:23:21.237Z,14.47
2022-10-25T22:25:48.808Z,14.33
2022-10-25T22:28:17.595Z,14.39
2022-10-25T22:30:45.037Z,14.51
2022-10-25T22:33:12.558Z,14.07
2022-10-25T22:35:39.996Z,13.77
2022-10-25T22:38:07.561Z,13.98
2022-10-25T22:40:35.021Z,13.94
2022-10-25T22:43:03.672Z,13.99
2022-10-25T22:45:32.471Z,14.11
2022-10-25T22:47:59.931Z,14.09
2022-10-25T22:50:27.429Z,13.95
2022-10-25T22:52:54.874Z,13.82
2022-10-25T22:55:22.329Z,13.98
2022-10-25T22:57:49.992Z,13.94
2022-10-25T23:00:17.723Z,14.05
2022-10-25T23:02:46.752Z,14.03
2022-10-25T23:05:14.390Z,14.16
2022-10-25T23:07:41.844Z,13.90
2022-10-25T23:10:09.750Z,13.96
2022-10-25T23:12:37.182Z,13.90
2022-10-25T23:15:04.800Z,13.93
2022-10-25T23:17:32.268Z,14.03
2022-10-25T23:20:01.106Z,13.91
2022-10-25T23:22:28.557Z,13.94
2022-10-25T23:24:56.026Z,14.06
2022-10-25T23:27:23.529Z,14.05
2022-10-25T23:29:50.997Z,14.00
2022-10-25T23:32:19.562Z,13.96
2022-10-25T23:34:46.994Z,13.97
2022-10-25T23:37:15.818Z,13.65
2022-10-25T23:39:43.298Z,13.58
2022-10-25T23:42:10.773Z,13.74
2022-10-25T23:44:38.200Z,13.68
2022-10-25T23:47:05.709Z,13.53
2022-10-25T23:49:33.146Z,13.59
2022-10-25T23:52:00.622Z,13.60
2022-10-25T23:54:29.428Z,13.47
2022-10-25T23:56:56.897Z,13.55
